Time;durP1;ratioP1;P1;durP2;ratioP2;P2;SDS_P1;SDS_P2;PMS_P1;PMS_P2;Temp;Humidity;BMP_temperature;BMP_pressure;BME280_temperature;BME280_humidity;BME280_pressure;Samples;Min_cycle;Max_cycle;Signal;HPM_P1;HPM_P2
2022/11/11 00:00:45;;;;;;;35.88;23.80;;;;;;;9.96;100.00;100617.19;1687128;83;21070;-78
2022/11/11 00:03:31;;;;;;;40.50;26.95;;;;;;;9.97;100.00;100621.53;1706555;84;21087;-76
2022/11/11 00:06:16;;;;;;;35.85;25.05;;;;;;;9.95;100.00;100616.88;1693688;82;21006;-75
2022/11/11 00:09:02;;;;;;;34.70;25.90;;;;;;;9.94;100.00;100623.30;1707470;83;21067;-77
2022/11/11 00:11:47;;;;;;;32.83;25.02;;;;;;;9.91;100.00;100626.44;1688789;83;21062;-76
2022/11/11 00:14:33;;;;;;;38.02;26.27;;;;;;;9.90;100.00;100619.42;1689508;84;21083;-76
2022/11/11 00:26:31;;;;;;;28.67;23.02;;;;;;;9.94;100.00;100630.53;1698829;83;21072;-76
2022/11/11 00:29:15;;;;;;;34.58;23.25;;;;;;;9.92;100.00;100632.12;1707127;83;21035;-79
2022/11/11 00:41:19;;;;;;;24.72;19.20;;;;;;;9.79;100.00;100636.78;1663047;86;20986;-69
2022/11/11 00:44:04;;;;;;;25.77;19.73;;;;;;;9.76;100.00;100631.86;1643652;86;21063;-69
2022/11/11 00:52:57;;;;;;;24.05;19.05;;;;;;;9.54;100.00;100629.56;1703794;84;28273;-67
2022/11/11 00:55:41;;;;;;;24.23;19.75;;;;;;;9.51;100.00;100634.04;1703629;84;21017;-68
2022/11/11 00:58:27;;;;;;;25.57;18.67;;;;;;;9.48;100.00;100637.70;1717687;82;21038;-66
2022/11/11 01:01:12;;;;;;;26.15;18.65;;;;;;;9.45;100.00;100634.91;1703618;84;21151;-68
2022/11/11 01:03:58;;;;;;;23.92;18.27;;;;;;;9.44;100.00;100633.29;1695471;84;21015;-67
2022/11/11 01:06:43;;;;;;;21.82;18.10;;;;;;;9.44;100.00;100638.66;1703935;83;21034;-69
2022/11/11 01:09:28;;;;;;;23.57;18.45;;;;;;;9.41;100.00;100632.88;1710520;82;21030;-70
2022/11/11 01:12:15;;;;;;;20.08;16.73;;;;;;;9.38;100.00;100634.16;1694027;84;21567;-72
2022/11/11 01:15:00;;;;;;;24.15;18.35;;;;;;;9.35;100.00;100641.84;1694370;84;21122;-73
2022/11/11 01:17:46;;;;;;;22.93;17.07;;;;;;;9.33;100.00;100643.39;1671517;84;21646;-75
2022/11/11 01:20:32;;;;;;;22.93;16.93;;;;;;;9.32;100.00;100640.39;1696118;83;21604;-77
2022/11/11 01:23:17;;;;;;;21.48;17.52;;;;;;;9.31;100.00;100641.42;1674137;84;21056;-78
2022/11/11 01:26:06;;;;;;;21.90;18.20;;;;;;;9.31;100.00;100644.11;1695626;84;21056;-69
2022/11/11 01:28:54;;;;;;;20.77;16.32;;;;;;;9.31;100.00;100645.45;1672995;83;21019;-72
2022/11/11 01:31:39;;;;;;;24.23;17.70;;;;;;;9.30;100.00;100638.98;1694414;84;20939;-73
2022/11/11 01:34:26;;;;;;;21.73;17.55;;;;;;;9.28;100.00;100639.70;1683515;84;21563;-71
2022/11/11 01:37:12;;;;;;;20.70;15.90;;;;;;;9.29;100.00;100646.73;1686805;84;21625;-74
2022/11/11 01:39:57;;;;;;;20.95;16.45;;;;;;;9.29;100.00;100643.52;1695226;83;21126;-73
2022/11/11 01:43:04;;;;;;;19.77;14.65;;;;;;;9.29;100.00;100648.89;1694629;84;20916;-72
2022/11/11 01:46:01;;;;;;;19.75;14.28;;;;;;;9.31;100.00;100645.97;1694740;84;20959;-74
2022/11/11 01:52:30;;;;;;;18.70;15.88;;;;;;;9.29;100.00;100655.61;1694488;83;21062;-73
2022/11/11 01:55:18;;;;;;;21.60;16.25;;;;;;;9.29;100.00;100656.95;1703527;84;21042;-75
2022/11/11 01:58:08;;;;;;;20.27;14.30;;;;;;;9.28;100.00;100663.35;1675000;84;21196;-69
2022/11/11 02:00:53;;;;;;;19.75;15.48;;;;;;;9.31;100.00;100663.42;1688897;83;20995;-70
2022/11/11 02:05:41;;;;;;;18.35;14.33;;;;;;;9.31;100.00;100656.19;1670176;85;20955;-79
2022/11/11 02:06:31;;;;;;;17.42;15.38;;;;;;;9.34;100.00;100658.46;1691486;83;21007;-73
2022/11/11 02:09:16;;;;;;;15.28;13.58;;;;;;;9.36;100.00;100664.41;1679900;85;21078;-73
2022/11/11 02:15:09;;;;;;;15.83;13.85;;;;;;;9.38;100.00;100672.27;1692993;83;21054;-72
2022/11/11 02:17:55;;;;;;;16.05;13.48;;;;;;;9.37;100.00;100666.06;1644028;86;20943;-79
2022/11/11 02:20:43;;;;;;;13.35;11.95;;;;;;;9.36;100.00;100659.05;1678412;83;21030;-77
2022/11/11 02:23:52;;;;;;;13.60;11.38;;;;;;;9.40;100.00;100668.85;1695038;84;21079;-78
2022/11/11 02:26:36;;;;;;;16.48;11.83;;;;;;;9.43;100.00;100669.23;1693300;83;21006;-77
2022/11/11 02:29:23;;;;;;;13.45;12.05;;;;;;;9.43;100.00;100668.41;1662958;84;21553;-69
2022/11/11 02:32:09;;;;;;;15.53;12.93;;;;;;;9.44;100.00;100669.54;1694219;83;21012;-70
2022/11/11 02:34:54;;;;;;;16.10;11.83;;;;;;;9.46;100.00;100682.73;1681838;83;21724;-69
2022/11/11 02:37:42;;;;;;;14.45;12.65;;;;;;;9.43;100.00;100678.63;1693309;83;21074;-68
2022/11/11 02:41:55;;;;;;;15.70;12.18;;;;;;;9.42;100.00;100683.69;1692278;84;21061;-69
2022/11/11 02:43:27;;;;;;;14.70;11.43;;;;;;;9.40;100.00;100680.39;1681700;83;21003;-83
2022/11/11 02:46:15;;;;;;;14.28;12.78;;;;;;;9.38;100.00;100682.48;1693224;83;21035;-83
2022/11/11 02:48:59;;;;;;;13.18;11.45;;;;;;;9.38;100.00;100684.34;1693063;84;21008;-80
2022/11/11 02:51:44;;;;;;;13.32;10.75;;;;;;;9.40;100.00;100678.25;1692859;84;20996;-77
2022/11/11 02:54:29;;;;;;;13.40;11.97;;;;;;;9.42;100.00;100676.98;1694392;83;21662;-76
2022/11/11 02:57:14;;;;;;;12.45;11.15;;;;;;;9.44;100.00;100680.28;1695852;84;21060;-72
2022/11/11 03:00:00;;;;;;;13.53;11.90;;;;;;;9.46;100.00;100672.81;1673888;84;21013;-72
2022/11/11 03:02:46;;;;;;;13.35;11.78;;;;;;;9.46;100.00;100672.81;1715218;83;21476;-69
2022/11/11 03:05:31;;;;;;;16.95;12.73;;;;;;;9.48;100.00;100677.97;1709001;83;21768;-69
2022/11/11 03:08:17;;;;;;;14.95;11.38;;;;;;;9.47;100.00;100672.30;1666395;84;21281;-77
2022/11/11 03:11:02;;;;;;;14.00;11.70;;;;;;;9.47;100.00;100677.14;1692411;84;21103;-76
2022/11/11 03:13:47;;;;;;;11.90;10.70;;;;;;;9.48;100.00;100681.48;1670730;84;21566;-75
2022/11/11 03:19:37;;;;;;;11.73;10.15;;;;;;;9.53;100.00;100678.97;1694315;84;21053;-71
2022/11/11 03:22:23;;;;;;;13.65;11.48;;;;;;;9.54;100.00;100683.27;1694333;84;21468;-72
2022/11/11 03:28:15;;;;;;;13.10;10.50;;;;;;;9.52;100.00;100685.38;1696141;84;28225;-72
2022/11/11 03:31:01;;;;;;;12.35;11.05;;;;;;;9.48;100.00;100689.54;1667998;85;21030;-72
2022/11/11 03:33:46;;;;;;;11.78;9.78;;;;;;;9.41;100.00;100694.64;1683685;84;21007;-72
2022/11/11 03:38:14;;;;;;;13.03;11.38;;;;;;;9.39;100.00;100695.39;1707050;82;21212;-73
2022/11/11 03:39:18;;;;;;;12.23;10.85;;;;;;;9.40;100.00;100692.47;1688768;82;21013;-75
2022/11/11 03:42:03;;;;;;;12.53;11.20;;;;;;;9.46;100.00;100690.78;1670169;83;21036;-75
2022/11/11 03:44:47;;;;;;;12.55;10.82;;;;;;;9.51;100.00;100692.30;1675292;82;21590;-76
2022/11/11 03:47:34;;;;;;;11.50;10.35;;;;;;;9.56;100.00;100687.09;1698244;84;20896;-75
2022/11/11 03:50:19;;;;;;;15.03;11.35;;;;;;;9.57;100.00;100690.91;1695650;84;21866;-75
2022/11/11 03:53:05;;;;;;;13.58;10.48;;;;;;;9.57;100.00;100696.28;1694328;84;20996;-75
2022/11/11 03:55:51;;;;;;;12.30;11.00;;;;;;;9.55;100.00;100704.24;1688962;83;21660;-76
2022/11/11 03:58:39;;;;;;;10.70;9.60;;;;;;;9.51;100.00;100705.72;1695341;84;21036;-73
2022/11/11 04:10:32;;;;;;;9.75;8.85;;;;;;;9.47;100.00;100705.34;1659995;84;21051;-76
2022/11/11 04:16:21;;;;;;;11.78;10.58;;;;;;;9.48;100.00;100709.68;1695269;83;26918;-76
2022/11/11 04:22:10;;;;;;;14.55;11.03;;;;;;;9.49;100.00;100718.05;1666243;86;21008;-71
2022/11/11 04:31:04;;;;;;;13.88;11.08;;;;;;;9.44;100.00;100728.62;1678381;85;21039;-77
2022/11/11 04:33:49;;;;;;;12.28;11.08;;;;;;;9.44;100.00;100725.11;1677943;85;21094;-74
2022/11/11 04:36:36;;;;;;;14.90;12.50;;;;;;;9.46;100.00;100727.03;1711687;82;20981;-74
2022/11/11 04:42:24;;;;;;;14.23;12.43;;;;;;;9.49;100.00;100732.81;1684693;84;21043;-73
2022/11/11 04:48:17;;;;;;;14.75;13.25;;;;;;;9.55;100.00;100746.70;1706643;84;21503;-73
2022/11/11 04:51:01;;;;;;;17.15;12.37;;;;;;;9.54;100.00;100745.05;1705900;84;21073;-72
2022/11/11 04:53:46;;;;;;;15.28;11.15;;;;;;;9.54;100.00;100745.59;1705857;84;21528;-73
2022/11/11 04:56:46;;;;;;;13.50;10.90;;;;;;;9.56;100.00;100754.23;1706420;82;20996;-73
2022/11/11 04:59:32;;;;;;;13.13;11.18;;;;;;;9.57;100.00;100754.03;1673431;83;21113;-73
2022/11/11 05:05:22;;;;;;;17.73;12.93;;;;;;;9.59;100.00;100757.30;1717084;82;21574;-73
2022/11/11 05:11:12;;;;;;;16.23;12.63;;;;;;;9.59;100.00;100750.59;1691366;82;20999;-74
2022/11/11 05:23:15;;;;;;;16.02;13.28;;;;;;;9.56;100.00;100755.06;1706746;82;21054;-75
2022/11/11 05:26:00;;;;;;;19.73;13.85;;;;;;;9.61;100.00;100764.64;1716015;82;21015;-74
2022/11/11 05:28:46;;;;;;;21.50;14.45;;;;;;;9.64;100.00;100771.42;1701073;84;21590;-74
2022/11/11 05:31:31;;;;;;;18.27;13.40;;;;;;;9.66;100.00;100776.07;1679820;84;21206;-73
2022/11/11 05:34:16;;;;;;;17.07;13.38;;;;;;;9.66;100.00;100776.07;1680030;84;21100;-73
2022/11/11 05:37:02;;;;;;;18.35;13.85;;;;;;;9.64;100.00;100772.25;1689563;82;21484;-75
2022/11/11 05:39:46;;;;;;;21.65;14.95;;;;;;;9.63;100.00;100790.77;1678126;84;21021;-74
2022/11/11 05:42:31;;;;;;;18.52;14.15;;;;;;;9.63;100.00;100792.63;1677539;85;21097;-74
2022/11/11 05:45:16;;;;;;;19.45;15.65;;;;;;;9.65;100.00;100803.97;1692913;82;21370;-75
2022/11/11 05:48:03;;;;;;;23.70;13.53;;;;;;;9.69;100.00;100803.03;1651956;85;21017;-76
2022/11/11 05:50:49;;;;;;;18.92;15.90;;;;;;;9.71;100.00;100810.34;1685140;84;21052;-75
2022/11/11 05:53:34;;;;;;;14.87;12.53;;;;;;;9.71;100.00;100814.38;1685035;84;21500;-74
2022/11/11 05:56:18;;;;;;;20.77;15.75;;;;;;;9.72;100.00;100813.34;1688664;83;20998;-78
2022/11/11 05:59:04;;;;;;;21.35;15.10;;;;;;;9.71;100.00;100813.86;1685728;85;21400;-76
2022/11/11 06:01:51;;;;;;;19.80;13.83;;;;;;;9.69;100.00;100821.84;1708240;82;20927;-77
2022/11/11 06:04:36;;;;;;;21.23;14.47;;;;;;;9.67;100.00;100826.08;1708524;82;21011;-74
2022/11/11 06:07:21;;;;;;;18.20;14.65;;;;;;;9.65;100.00;100840.23;1678361;84;21062;-74
2022/11/11 06:13:14;;;;;;;16.65;13.43;;;;;;;9.68;100.00;100839.81;1702945;84;22212;-73
2022/11/11 06:16:01;;;;;;;26.60;15.45;;;;;;;9.70;100.00;100854.36;1717625;82;20981;-73
2022/11/11 06:18:48;;;;;;;18.55;15.98;;;;;;;9.73;100.00;100853.43;1674349;84;30565;-73
2022/11/11 06:21:55;;;;;;;18.30;14.93;;;;;;;9.75;100.00;100863.42;1683726;84;21023;-75
2022/11/11 06:24:23;;;;;;;21.55;16.85;;;;;;;9.77;100.00;100868.59;1683711;84;21103;-74
2022/11/11 06:27:08;;;;;;;17.35;14.93;;;;;;;9.74;100.00;100867.14;1683114;84;21270;-75
2022/11/11 06:29:53;;;;;;;22.95;16.85;;;;;;;9.74;100.00;100877.06;1690542;83;21029;-75
2022/11/11 06:32:38;;;;;;;23.52;16.32;;;;;;;9.72;100.00;100872.44;1689951;85;21495;-75
2022/11/11 06:35:23;;;;;;;22.05;17.92;;;;;;;9.71;100.00;100881.53;1685999;84;21074;-76
2022/11/11 06:38:09;;;;;;;21.57;16.95;;;;;;;9.72;100.00;100881.84;1676454;85;21018;-77
2022/11/11 06:40:54;;;;;;;22.77;16.37;;;;;;;9.77;100.00;100880.68;1675368;85;21165;-75
2022/11/11 06:43:41;;;;;;;22.42;16.10;;;;;;;9.81;100.00;100885.92;1674140;85;20939;-76
2022/11/11 06:46:26;;;;;;;21.60;16.10;;;;;;;9.82;100.00;100888.41;1681191;84;21085;-76
2022/11/11 06:49:12;;;;;;;23.32;17.50;;;;;;;9.85;100.00;100887.96;1688952;85;21530;-77
2022/11/11 06:51:56;;;;;;;23.87;16.07;;;;;;;9.87;100.00;100898.50;1688861;85;21581;-78
2022/11/11 06:54:41;;;;;;;22.75;14.85;;;;;;;9.88;100.00;100888.86;1679731;85;21759;-75
2022/11/11 06:57:26;;;;;;;20.77;17.15;;;;;;;9.90;100.00;100899.41;1673376;84;21031;-75
2022/11/11 07:00:11;;;;;;;24.20;17.77;;;;;;;9.87;100.00;100899.33;1675311;85;21580;-79
2022/11/11 07:02:57;;;;;;;21.02;16.70;;;;;;;9.86;100.00;100904.39;1677222;84;21014;-76
2022/11/11 07:05:43;;;;;;;21.95;17.10;;;;;;;9.89;100.00;100904.47;1654856;84;21046;-76
2022/11/11 07:08:28;;;;;;;23.27;17.07;;;;;;;9.91;100.00;100899.72;1649499;87;21118;-77
2022/11/11 07:11:13;;;;;;;25.75;17.98;;;;;;;9.94;100.00;100902.79;1647894;85;21621;-76
2022/11/11 07:13:57;;;;;;;21.82;16.82;;;;;;;9.97;100.00;100909.09;1676452;85;21366;-79
2022/11/11 07:16:45;;;;;;;26.30;19.25;;;;;;;9.97;100.00;100902.38;1658796;85;21654;-84
2022/11/11 07:19:32;;;;;;;28.70;18.07;;;;;;;9.98;100.00;100910.72;1673879;84;20939;-83
2022/11/11 07:22:17;;;;;;;19.57;14.28;;;;;;;9.99;100.00;100899.45;1665740;86;21510;-79
2022/11/11 07:25:03;;;;;;;25.57;17.75;;;;;;;10.01;100.00;100912.99;1666701;85;21054;-79
2022/11/11 07:27:48;;;;;;;24.45;18.85;;;;;;;10.01;100.00;100918.37;1656560;85;20966;-80
2022/11/11 07:30:34;;;;;;;22.75;16.48;;;;;;;10.04;100.00;100927.33;1625307;88;21041;-83
2022/11/11 07:33:19;;;;;;;23.38;17.48;;;;;;;10.07;100.00;100926.09;1626984;87;21073;-80
2022/11/11 07:36:04;;;;;;;23.55;16.95;;;;;;;10.12;100.00;100922.76;1645753;86;21231;-78
2022/11/11 07:38:50;;;;;;;29.57;17.73;;;;;;;10.17;100.00;100921.63;1627068;87;21018;-79
2022/11/11 07:41:36;;;;;;;23.75;15.25;;;;;;;10.22;100.00;100917.22;1657196;85;21007;-76
2022/11/11 07:44:21;;;;;;;23.15;16.87;;;;;;;10.26;100.00;100931.07;1669465;85;21003;-78
2022/11/11 07:47:06;;;;;;;25.17;16.17;;;;;;;10.25;100.00;100935.63;1648027;87;21545;-81
2022/11/11 07:49:51;;;;;;;24.85;18.70;;;;;;;10.26;100.00;100934.59;1633562;86;21639;-80
2022/11/11 07:52:36;;;;;;;25.48;18.12;;;;;;;10.27;100.00;100927.31;1654480;85;21074;-79
2022/11/11 07:55:22;;;;;;;23.87;16.77;;;;;;;10.30;100.00;100938.48;1639669;86;21572;-82
2022/11/11 07:58:08;;;;;;;24.40;18.42;;;;;;;10.36;100.00;100938.94;1628244;88;21449;-81
2022/11/11 08:00:54;;;;;;;26.62;17.02;;;;;;;10.38;100.00;100935.52;1628593;88;21052;-77
2022/11/11 08:03:50;;;;;;;22.70;16.25;;;;;;;10.41;100.00;100945.83;1651553;86;21701;-82
2022/11/11 08:06:37;;;;;;;27.17;18.82;;;;;;;10.42;100.00;100944.80;1657133;86;21064;-78
2022/11/11 08:09:22;;;;;;;29.15;19.00;;;;;;;10.42;100.00;100937.24;1666351;85;21042;-77
2022/11/11 08:15:15;;;;;;;21.77;17.25;;;;;;;10.47;100.00;100932.86;1547111;92;21062;-77
2022/11/11 08:18:00;;;;;;;25.92;20.30;;;;;;;10.51;100.00;100945.34;1547586;91;21361;-74
2022/11/11 08:20:46;;;;;;;23.40;18.40;;;;;;;10.57;100.00;100940.44;1645655;85;21615;-74
2022/11/11 08:23:32;;;;;;;27.52;19.77;;;;;;;10.61;100.00;100956.44;1661660;85;21054;-76
2022/11/11 08:26:20;;;;;;;26.05;19.05;;;;;;;10.61;100.00;100936.27;1666528;85;21111;-73
2022/11/11 08:29:06;;;;;;;25.90;17.75;;;;;;;10.64;100.00;100945.78;1666991;83;22277;-72
2022/11/11 08:31:52;;;;;;;31.75;20.32;;;;;;;10.64;100.00;100952.51;1695541;83;22017;-72
2022/11/11 08:34:37;;;;;;;29.77;20.15;;;;;;;10.63;100.00;100950.34;1683410;84;21161;-73
2022/11/11 08:37:22;;;;;;;29.85;19.50;;;;;;;10.65;100.00;100959.00;1695586;83;22056;-72
2022/11/11 08:40:08;;;;;;;23.32;18.55;;;;;;;10.67;100.00;100963.65;1662217;84;21106;-73
2022/11/11 08:42:57;;;;;;;24.80;18.98;;;;;;;10.69;100.00;100961.58;1675699;83;21578;-70
2022/11/11 08:45:41;;;;;;;23.83;16.75;;;;;;;10.66;100.00;100953.09;1686203;83;21086;-72
2022/11/11 08:48:27;;;;;;;25.97;19.52;;;;;;;10.66;100.00;100955.78;1671348;85;21704;-72
2022/11/11 08:51:14;;;;;;;28.07;20.23;;;;;;;10.65;100.00;100959.00;1704719;83;20971;-71
2022/11/11 08:53:59;;;;;;;25.15;18.55;;;;;;;10.64;100.00;100961.92;1690423;84;21070;-71
2022/11/11 08:56:45;;;;;;;27.77;17.67;;;;;;;10.66;100.00;100966.55;1652017;85;21159;-69
2022/11/11 08:59:32;;;;;;;26.07;19.12;;;;;;;10.67;100.00;100960.13;1652863;85;21017;-71
2022/11/11 09:02:17;;;;;;;27.58;18.87;;;;;;;10.69;100.00;100957.54;1680618;84;21092;-72
2022/11/11 09:05:03;;;;;;;33.75;21.17;;;;;;;10.70;100.00;100951.09;1681845;84;21562;-72
2022/11/11 09:07:52;;;;;;;27.00;19.12;;;;;;;10.72;100.00;100944.16;1683801;84;21151;-72
2022/11/11 09:10:37;;;;;;;22.87;16.45;;;;;;;10.73;100.00;100952.02;1657490;84;21104;-72
2022/11/11 09:13:23;;;;;;;28.52;19.35;;;;;;;10.73;100.00;100949.84;1689364;84;21550;-69
2022/11/11 09:16:08;;;;;;;30.23;19.00;;;;;;;10.73;100.00;100949.33;1689292;84;21090;-69
2022/11/11 09:18:53;;;;;;;29.12;18.80;;;;;;;10.73;100.00;100945.81;1679184;85;21099;-70
2022/11/11 09:21:38;;;;;;;27.62;18.67;;;;;;;10.76;100.00;100946.19;1679221;85;21110;-72
2022/11/11 09:24:24;;;;;;;31.52;21.45;;;;;;;10.78;100.00;100944.11;1700419;83;20995;-71
2022/11/11 09:27:12;;;;;;;31.68;21.05;;;;;;;10.83;100.00;100950.17;1686213;84;21108;-71
2022/11/11 09:29:57;;;;;;;31.07;18.15;;;;;;;10.86;100.00;100953.76;1655390;84;21078;-69
2022/11/11 09:32:42;;;;;;;31.77;20.40;;;;;;;10.84;100.00;100955.31;1686548;83;21034;-67
2022/11/11 09:35:27;;;;;;;32.70;19.82;;;;;;;10.84;100.00;100949.11;1689095;84;21091;-69
2022/11/11 09:38:13;;;;;;;31.45;20.70;;;;;;;10.87;100.00;100951.38;1688364;84;21098;-69
2022/11/11 09:41:21;;;;;;;28.38;22.22;;;;;;;10.87;100.00;100945.99;1688363;83;21158;-70
2022/11/11 09:44:12;;;;;;;28.80;21.35;;;;;;;10.89;100.00;100943.36;1689419;83;21550;-71
2022/11/11 09:47:05;;;;;;;35.92;18.70;;;;;;;10.93;100.00;100952.64;1708437;83;21154;-70
2022/11/11 09:50:11;;;;;;;30.05;20.40;;;;;;;10.94;100.00;100944.88;1717258;83;21536;-69
2022/11/11 09:53:17;;;;;;;33.75;20.55;;;;;;;10.94;100.00;100946.22;1680907;83;21543;-74
2022/11/11 09:56:11;;;;;;;33.98;19.80;;;;;;;11.00;100.00;100941.00;1669693;83;21207;-69
2022/11/11 09:59:09;;;;;;;29.32;20.88;;;;;;;11.05;100.00;100947.88;1695903;83;21032;-70
2022/11/11 10:01:57;;;;;;;24.95;18.67;;;;;;;11.10;100.00;100952.09;1685823;84;22530;-70
2022/11/11 10:04:54;;;;;;;26.75;19.25;;;;;;;11.13;100.00;100957.84;1699843;83;21611;-70
2022/11/11 10:07:50;;;;;;;27.13;18.20;;;;;;;11.16;100.00;100949.86;1689967;84;22043;-70
2022/11/11 10:10:46;;;;;;;25.08;18.23;;;;;;;11.20;100.00;100949.70;1691458;83;21299;-72
2022/11/11 10:13:34;;;;;;;26.60;18.42;;;;;;;11.20;100.00;100950.53;1680429;84;21144;-72
2022/11/11 13:54:42;;;;;;;12.50;11.03;;;;;;;11.41;94.89;101017.16;1713479;80;33089;-89
2022/11/11 13:57:28;;;;;;;15.78;10.53;;;;;;;11.43;94.79;101024.47;1741964;81;21016;-72
2022/11/11 14:00:20;;;;;;;13.30;10.48;;;;;;;11.44;94.76;101023.43;1733568;81;21159;-78
2022/11/11 14:03:19;;;;;;;17.85;11.80;;;;;;;11.49;94.95;101028.98;1701173;84;21020;-78
2022/11/11 14:06:19;;;;;;;12.75;11.25;;;;;;;11.51;94.77;101025.00;1679927;84;21009;-70
2022/11/11 14:09:06;;;;;;;14.20;11.12;;;;;;;11.56;94.79;101028.40;1698257;84;20929;-71
2022/11/11 14:12:08;;;;;;;13.22;11.83;;;;;;;11.59;94.65;101040.06;1697722;84;21047;-75
2022/11/11 14:14:55;;;;;;;15.05;10.82;;;;;;;11.64;94.46;101034.31;1683602;83;21316;-74
2022/11/11 14:17:44;;;;;;;14.25;11.38;;;;;;;11.61;94.16;101041.47;1697993;84;21033;-80
2022/11/11 14:20:41;;;;;;;13.72;11.90;;;;;;;11.56;94.08;101044.56;1697832;83;20945;-77
2022/11/11 14:23:40;;;;;;;17.52;12.68;;;;;;;11.49;94.11;101041.09;1698437;84;21067;-71
2022/11/11 14:26:29;;;;;;;12.55;11.05;;;;;;;11.46;94.20;101042.91;1699425;84;21533;-82
2022/11/11 14:29:17;;;;;;;13.68;11.70;;;;;;;11.44;94.24;101054.41;1698585;84;21926;-77
2022/11/11 14:32:33;;;;;;;17.07;11.53;;;;;;;11.43;94.26;101054.11;1704638;83;21038;-80
2022/11/11 14:35:34;;;;;;;16.90;12.53;;;;;;;11.42;94.23;101047.06;1697855;83;21035;-76
2022/11/11 14:38:33;;;;;;;18.15;12.33;;;;;;;11.40;94.28;101049.17;1698943;84;21080;-77
2022/11/11 14:41:47;;;;;;;15.58;12.47;;;;;;;11.37;94.39;101035.08;1648134;85;21584;-78
2022/11/11 14:44:42;;;;;;;15.35;12.63;;;;;;;11.39;94.46;101045.65;1671774;85;21341;-84
2022/11/11 14:47:38;;;;;;;19.65;12.98;;;;;;;11.43;94.51;101052.76;1706613;83;21048;-84
2022/11/11 14:50:39;;;;;;;15.60;11.85;;;;;;;11.47;94.53;101045.35;1739144;81;20964;-80
2022/11/11 14:53:33;;;;;;;14.38;11.35;;;;;;;11.57;94.50;101042.97;1723302;81;21571;-78
2022/11/11 14:56:20;;;;;;;14.07;12.35;;;;;;;11.65;94.07;101045.39;1725754;83;21044;-73
2022/11/11 14:59:07;;;;;;;18.37;13.30;;;;;;;11.69;93.64;101056.55;1724852;83;21201;-75
2022/11/11 15:01:54;;;;;;;25.05;15.03;;;;;;;11.69;93.37;101058.72;1726703;83;21015;-73
2022/11/11 15:04:41;;;;;;;18.98;14.15;;;;;;;11.68;93.15;101061.63;1710048;82;21018;-75
2022/11/11 15:07:52;;;;;;;19.05;13.43;;;;;;;11.68;93.17;101067.02;1737203;81;21023;-90
2022/11/11 15:11:04;;;;;;;16.75;14.95;;;;;;;11.70;92.97;101066.28;1696774;84;21011;-82
2022/11/11 15:14:27;;;;;;;18.48;14.85;;;;;;;11.67;92.97;101074.28;1715276;81;21178;-82
2022/11/11 15:17:43;;;;;;;15.25;13.00;;;;;;;11.64;92.79;101077.43;1726624;81;21015;-78
2022/11/11 15:21:22;;;;;;;19.15;14.33;;;;;;;11.59;92.83;101085.88;1726466;81;20964;-82
2022/11/11 15:24:17;;;;;;;20.55;13.35;;;;;;;11.50;92.85;101084.52;1720484;83;21055;-75
2022/11/11 15:27:28;;;;;;;20.72;14.43;;;;;;;11.46;93.34;101080.63;1697421;84;21061;-79
2022/11/11 15:30:16;;;;;;;18.60;14.03;;;;;;;11.48;93.46;101075.81;1722589;81;20930;-72
2022/11/11 15:33:13;;;;;;;19.52;15.10;;;;;;;11.54;93.32;101074.42;1697309;84;21087;-72
2022/11/11 15:36:09;;;;;;;18.80;14.15;;;;;;;11.54;93.18;101075.77;1702723;83;20984;-74
2022/11/11 15:38:56;;;;;;;17.48;14.25;;;;;;;11.52;92.90;101072.98;1728412;81;21249;-81
2022/11/11 15:41:52;;;;;;;22.20;14.38;;;;;;;11.48;92.95;101075.30;1727443;81;21096;-81
2022/11/11 15:44:45;;;;;;;19.25;15.78;;;;;;;11.45;93.06;101070.36;1726363;83;21170;-80
2022/11/11 15:47:40;;;;;;;26.07;16.82;;;;;;;11.40;93.23;101074.25;1722260;81;22275;-75
2022/11/11 15:50:36;;;;;;;25.95;17.40;;;;;;;11.38;93.43;101065.55;1721144;81;21283;-75
2022/11/11 15:53:31;;;;;;;23.32;15.90;;;;;;;11.38;93.75;101066.89;1723025;83;21565;-80
2022/11/11 15:56:34;;;;;;;23.83;18.15;;;;;;;11.40;93.85;101070.72;1713740;83;21669;-81
2022/11/11 15:59:34;;;;;;;24.23;18.95;;;;;;;11.39;93.99;101068.55;1699453;83;21351;-81
2022/11/11 16:02:26;;;;;;;17.75;15.95;;;;;;;11.40;93.90;101069.38;1696582;84;21028;-81
2022/11/11 16:05:27;;;;;;;19.07;16.48;;;;;;;11.39;93.88;101069.89;1731702;81;21025;-82
2022/11/11 16:08:19;;;;;;;26.73;18.05;;;;;;;11.36;93.93;101071.17;1712946;82;21013;-80
2022/11/11 16:11:05;;;;;;;23.18;15.80;;;;;;;11.33;94.06;101071.59;1702852;82;21078;-73
2022/11/11 16:14:02;;;;;;;20.02;15.78;;;;;;;11.31;94.31;101063.45;1720078;82;21775;-85
2022/11/11 16:16:54;;;;;;;20.02;17.57;;;;;;;11.31;94.48;101062.11;1703715;83;20955;-93
2022/11/11 16:19:43;;;;;;;19.48;14.50;;;;;;;11.27;94.52;101067.09;1730105;81;21052;-90
2022/11/11 16:22:46;;;;;;;22.45;15.98;;;;;;;11.22;94.65;101076.90;1698230;83;21552;-84
2022/11/11 16:25:33;;;;;;;22.62;15.30;;;;;;;11.16;94.77;101082.63;1725100;81;21113;-87
2022/11/11 16:28:19;;;;;;;18.70;14.65;;;;;;;11.13;94.96;101080.36;1700259;81;21149;-73
2022/11/11 16:31:27;;;;;;;27.62;15.93;;;;;;;11.14;95.20;101085.23;1682043;84;22322;-73
2022/11/11 16:34:52;;;;;;;23.90;16.37;;;;;;;11.16;95.46;101089.37;1689459;81;21050;-83
2022/11/11 16:37:58;;;;;;;21.48;16.70;;;;;;;11.25;95.47;101101.52;1693144;83;21034;-82
2022/11/11 16:40:45;;;;;;;21.75;16.35;;;;;;;11.22;95.31;101103.83;1713490;83;21136;-80
2022/11/11 16:43:34;;;;;;;14.58;12.63;;;;;;;11.16;95.29;101110.91;1713469;82;21152;-74
2022/11/11 16:46:38;;;;;;;18.23;13.98;;;;;;;11.09;95.38;101116.85;1707517;81;20941;-70
2022/11/11 16:49:30;;;;;;;14.58;11.68;;;;;;;11.01;95.63;101109.56;1718152;83;21074;-74
2022/11/11 16:52:20;;;;;;;14.70;11.93;;;;;;;10.93;96.14;101115.50;1699631;83;21473;-76
2022/11/11 16:55:07;;;;;;;17.20;13.75;;;;;;;10.92;96.59;101120.61;1685451;84;21022;-76
2022/11/11 16:57:53;;;;;;;18.85;12.55;;;;;;;10.90;96.81;101119.98;1687802;84;21936;-75
2022/11/11 17:00:42;;;;;;;25.77;19.87;;;;;;;10.88;97.07;101121.26;1719045;82;21525;-76
2022/11/11 17:03:27;;;;;;;17.60;13.55;;;;;;;10.83;97.32;101117.88;1705523;83;21238;-77
2022/11/11 17:06:12;;;;;;;18.75;12.82;;;;;;;10.78;97.47;101114.17;1694529;83;20980;-74
2022/11/11 17:08:58;;;;;;;21.52;15.08;;;;;;;10.72;97.67;101113.17;1711529;83;21110;-74
2022/11/11 17:11:46;;;;;;;21.77;16.37;;;;;;;10.69;98.10;101105.53;1715918;82;22170;-74
2022/11/11 17:14:36;;;;;;;18.75;13.62;;;;;;;10.67;98.50;101108.13;1730630;82;21026;-79
2022/11/11 17:17:21;;;;;;;23.05;16.65;;;;;;;10.65;98.59;101104.30;1681744;84;21126;-76
2022/11/11 17:20:11;;;;;;;18.73;14.25;;;;;;;10.61;98.56;101106.28;1712295;82;21056;-72
2022/11/11 17:23:02;;;;;;;19.05;15.08;;;;;;;10.57;98.75;101104.55;1731499;82;21057;-74
2022/11/11 17:25:47;;;;;;;11.88;9.80;;;;;;;10.50;98.90;101095.16;1697785;82;21898;-69
2022/11/11 17:28:35;;;;;;;13.93;12.23;;;;;;;10.48;98.98;101098.60;1713168;82;20986;-77
2022/11/11 17:31:23;;;;;;;16.82;11.53;;;;;;;10.46;99.10;101095.29;1706668;83;21057;-69
2022/11/11 17:34:09;;;;;;;13.83;11.05;;;;;;;10.49;99.32;101090.84;1711596;83;21005;-73
2022/11/11 17:36:54;;;;;;;15.10;10.58;;;;;;;10.58;99.32;101089.23;1714773;82;21039;-70
2022/11/11 17:39:43;;;;;;;13.85;11.18;;;;;;;10.66;99.21;101095.19;1710054;83;21179;-71
2022/11/11 17:42:29;;;;;;;14.95;12.23;;;;;;;10.71;98.89;101081.08;1712065;83;21652;-70
2022/11/11 17:45:14;;;;;;;13.93;10.80;;;;;;;10.73;98.49;101073.11;1709745;83;20973;-71
2022/11/11 17:48:00;;;;;;;18.37;12.73;;;;;;;10.72;98.27;101074.15;1697031;83;21063;-70
2022/11/11 17:50:46;;;;;;;15.20;13.32;;;;;;;10.73;98.11;101077.15;1714924;83;22180;-72